sensor_id;sensor_type;location;lat;lon;timestamp;P1;durP1;ratioP1;P2;durP2;ratioP2
13173;SDS011;6652;48.802;9.190;2023-06-04T00:00:05;16.67;;;6.90;;
13173;SDS011;6652;48.802;9.190;2023-06-04T00:02:33;12.20;;;6.72;;
13173;SDS011;6652;48.802;9.190;2023-06-04T00:05:00;13.65;;;7.18;;
13173;SDS011;6652;48.802;9.190;2023-06-04T00:07:26;16.73;;;7.13;;
13173;SDS011;6652;48.802;9.190;2023-06-04T00:09:54;17.23;;;7.13;;
13173;SDS011;6652;48.802;9.190;2023-06-04T00:12:21;16.02;;;7.47;;
13173;SDS011;6652;48.802;9.190;2023-06-04T00:14:48;13.57;;;6.80;;
13173;SDS011;6652;48.802;9.190;2023-06-04T00:17:15;14.70;;;7.22;;
13173;SDS011;6652;48.802;9.190;2023-06-04T00:19:41;9.90;;;6.60;;
13173;SDS011;6652;48.802;9.190;2023-06-04T00:22:08;17.02;;;6.53;;
13173;SDS011;6652;48.802;9.190;2023-06-04T00:24:36;16.80;;;7.20;;
13173;SDS011;6652;48.802;9.190;2023-06-04T00:27:06;13.65;;;6.50;;
13173;SDS011;6652;48.802;9.190;2023-06-04T00:29:33;13.02;;;6.35;;
13173;SDS011;6652;48.802;9.190;2023-06-04T00:32:00;12.40;;;6.55;;
13173;SDS011;6652;48.802;9.190;2023-06-04T00:34:27;12.48;;;6.05;;
13173;SDS011;6652;48.802;9.190;2023-06-04T00:36:54;11.30;;;5.90;;
13173;SDS011;6652;48.802;9.190;2023-06-04T00:39:21;13.05;;;6.13;;
13173;SDS011;6652;48.802;9.190;2023-06-04T00:41:48;10.38;;;5.45;;
13173;SDS011;6652;48.802;9.190;2023-06-04T00:44:16;12.82;;;6.40;;
13173;SDS011;6652;48.802;9.190;2023-06-04T00:46:43;11.27;;;6.07;;
13173;SDS011;6652;48.802;9.190;2023-06-04T00:49:12;16.65;;;6.07;;
13173;SDS011;6652;48.802;9.190;2023-06-04T00:51:39;12.13;;;6.15;;
13173;SDS011;6652;48.802;9.190;2023-06-04T00:54:07;15.57;;;6.15;;
13173;SDS011;6652;48.802;9.190;2023-06-04T00:56:34;9.05;;;5.90;;
13173;SDS011;6652;48.802;9.190;2023-06-04T00:59:02;12.93;;;6.47;;
13173;SDS011;6652;48.802;9.190;2023-06-04T01:01:34;9.43;;;5.88;;
13173;SDS011;6652;48.802;9.190;2023-06-04T01:04:11;12.05;;;5.55;;
13173;SDS011;6652;48.802;9.190;2023-06-04T01:06:43;13.50;;;5.88;;
13173;SDS011;6652;48.802;9.190;2023-06-04T01:09:11;14.27;;;6.10;;
13173;SDS011;6652;48.802;9.190;2023-06-04T01:11:39;13.55;;;5.63;;
13173;SDS011;6652;48.802;9.190;2023-06-04T01:14:07;10.90;;;5.72;;
13173;SDS011;6652;48.802;9.190;2023-06-04T01:16:38;15.75;;;6.68;;
13173;SDS011;6652;48.802;9.190;2023-06-04T01:19:11;12.02;;;6.38;;
13173;SDS011;6652;48.802;9.190;2023-06-04T01:21:57;10.27;;;5.90;;
13173;SDS011;6652;48.802;9.190;2023-06-04T01:24:29;10.80;;;6.45;;
13173;SDS011;6652;48.802;9.190;2023-06-04T01:27:01;10.13;;;5.97;;
13173;SDS011;6652;48.802;9.190;2023-06-04T01:29:29;11.40;;;5.55;;
13173;SDS011;6652;48.802;9.190;2023-06-04T01:31:58;15.00;;;5.80;;
13173;SDS011;6652;48.802;9.190;2023-06-04T01:34:25;12.88;;;5.85;;
13173;SDS011;6652;48.802;9.190;2023-06-04T01:36:52;12.75;;;5.53;;
13173;SDS011;6652;48.802;9.190;2023-06-04T01:39:19;10.55;;;6.47;;
13173;SDS011;6652;48.802;9.190;2023-06-04T01:41:46;11.48;;;6.13;;
13173;SDS011;6652;48.802;9.190;2023-06-04T01:44:13;13.20;;;6.50;;
13173;SDS011;6652;48.802;9.190;2023-06-04T01:46:40;10.98;;;5.97;;
13173;SDS011;6652;48.802;9.190;2023-06-04T01:49:08;10.18;;;6.25;;
13173;SDS011;6652;48.802;9.190;2023-06-04T01:51:35;11.02;;;5.60;;
13173;SDS011;6652;48.802;9.190;2023-06-04T01:54:02;11.18;;;6.07;;
13173;SDS011;6652;48.802;9.190;2023-06-04T01:56:29;12.98;;;6.05;;
13173;SDS011;6652;48.802;9.190;2023-06-04T01:58:57;14.70;;;6.35;;
13173;SDS011;6652;48.802;9.190;2023-06-04T02:01:23;10.57;;;6.43;;
13173;SDS011;6652;48.802;9.190;2023-06-04T02:03:50;14.55;;;6.35;;
13173;SDS011;6652;48.802;9.190;2023-06-04T02:06:18;13.75;;;5.85;;
13173;SDS011;6652;48.802;9.190;2023-06-04T02:08:45;13.93;;;5.60;;
13173;SDS011;6652;48.802;9.190;2023-06-04T02:11:12;11.70;;;5.88;;
13173;SDS011;6652;48.802;9.190;2023-06-04T02:13:39;9.18;;;5.75;;
13173;SDS011;6652;48.802;9.190;2023-06-04T02:16:05;8.48;;;5.18;;
13173;SDS011;6652;48.802;9.190;2023-06-04T02:18:32;13.38;;;5.63;;
13173;SDS011;6652;48.802;9.190;2023-06-04T02:20:59;10.90;;;5.85;;
13173;SDS011;6652;48.802;9.190;2023-06-04T02:23:27;15.15;;;6.72;;
13173;SDS011;6652;48.802;9.190;2023-06-04T02:25:54;12.30;;;6.22;;
13173;SDS011;6652;48.802;9.190;2023-06-04T02:28:21;10.65;;;5.32;;
13173;SDS011;6652;48.802;9.190;2023-06-04T02:30:48;13.38;;;6.22;;
13173;SDS011;6652;48.802;9.190;2023-06-04T02:33:15;11.43;;;6.07;;
13173;SDS011;6652;48.802;9.190;2023-06-04T02:35:42;12.85;;;5.97;;
13173;SDS011;6652;48.802;9.190;2023-06-04T02:38:09;15.35;;;5.93;;
13173;SDS011;6652;48.802;9.190;2023-06-04T02:40:37;12.05;;;5.72;;
13173;SDS011;6652;48.802;9.190;2023-06-04T02:43:04;15.10;;;5.55;;
13173;SDS011;6652;48.802;9.190;2023-06-04T02:45:32;10.95;;;5.60;;
13173;SDS011;6652;48.802;9.190;2023-06-04T02:47:59;9.80;;;5.50;;
13173;SDS011;6652;48.802;9.190;2023-06-04T02:50:25;10.45;;;5.25;;
13173;SDS011;6652;48.802;9.190;2023-06-04T02:52:52;14.80;;;5.13;;
13173;SDS011;6652;48.802;9.190;2023-06-04T02:55:19;10.43;;;4.75;;
13173;SDS011;6652;48.802;9.190;2023-06-04T02:57:47;7.47;;;3.92;;
13173;SDS011;6652;48.802;9.190;2023-06-04T03:00:14;8.30;;;4.50;;
13173;SDS011;6652;48.802;9.190;2023-06-04T03:02:43;6.18;;;4.35;;
13173;SDS011;6652;48.802;9.190;2023-06-04T03:05:11;7.65;;;4.90;;
13173;SDS011;6652;48.802;9.190;2023-06-04T03:07:40;10.38;;;4.70;;
13173;SDS011;6652;48.802;9.190;2023-06-04T03:10:09;10.82;;;4.55;;
13173;SDS011;6652;48.802;9.190;2023-06-04T03:12:37;11.32;;;4.45;;
13173;SDS011;6652;48.802;9.190;2023-06-04T03:15:06;10.18;;;4.55;;
13173;SDS011;6652;48.802;9.190;2023-06-04T03:17:34;13.55;;;5.25;;
13173;SDS011;6652;48.802;9.190;2023-06-04T03:20:01;10.38;;;5.25;;
13173;SDS011;6652;48.802;9.190;2023-06-04T03:22:29;9.48;;;4.57;;
13173;SDS011;6652;48.802;9.190;2023-06-04T03:24:58;11.30;;;4.80;;
13173;SDS011;6652;48.802;9.190;2023-06-04T03:27:25;9.32;;;4.20;;
13173;SDS011;6652;48.802;9.190;2023-06-04T03:29:52;8.73;;;4.65;;
13173;SDS011;6652;48.802;9.190;2023-06-04T03:32:20;10.77;;;4.75;;
13173;SDS011;6652;48.802;9.190;2023-06-04T03:34:47;12.32;;;4.82;;
13173;SDS011;6652;48.802;9.190;2023-06-04T03:37:13;7.28;;;4.25;;
13173;SDS011;6652;48.802;9.190;2023-06-04T03:39:40;11.73;;;4.68;;
13173;SDS011;6652;48.802;9.190;2023-06-04T03:42:07;9.60;;;5.10;;
13173;SDS011;6652;48.802;9.190;2023-06-04T03:44:34;9.85;;;4.88;;
13173;SDS011;6652;48.802;9.190;2023-06-04T03:47:00;12.23;;;5.05;;
13173;SDS011;6652;48.802;9.190;2023-06-04T03:49:29;11.77;;;5.68;;
13173;SDS011;6652;48.802;9.190;2023-06-04T03:51:55;13.18;;;4.82;;
13173;SDS011;6652;48.802;9.190;2023-06-04T03:54:22;10.00;;;4.97;;
13173;SDS011;6652;48.802;9.190;2023-06-04T03:56:49;15.23;;;5.10;;
13173;SDS011;6652;48.802;9.190;2023-06-04T03:59:16;11.32;;;5.03;;
13173;SDS011;6652;48.802;9.190;2023-06-04T04:01:42;8.30;;;5.55;;
13173;SDS011;6652;48.802;9.190;2023-06-04T04:04:09;8.65;;;5.18;;
13173;SDS011;6652;48.802;9.190;2023-06-04T04:06:38;13.82;;;5.05;;
13173;SDS011;6652;48.802;9.190;2023-06-04T04:09:05;8.50;;;5.22;;
13173;SDS011;6652;48.802;9.190;2023-06-04T04:11:31;8.45;;;5.45;;
13173;SDS011;6652;48.802;9.190;2023-06-04T04:13:59;9.63;;;4.90;;
13173;SDS011;6652;48.802;9.190;2023-06-04T04:16:26;6.63;;;4.57;;
13173;SDS011;6652;48.802;9.190;2023-06-04T04:18:53;11.57;;;5.32;;
13173;SDS011;6652;48.802;9.190;2023-06-04T04:21:20;11.27;;;5.05;;
13173;SDS011;6652;48.802;9.190;2023-06-04T04:23:49;14.27;;;4.93;;
13173;SDS011;6652;48.802;9.190;2023-06-04T04:26:17;7.22;;;5.30;;
13173;SDS011;6652;48.802;9.190;2023-06-04T04:28:43;10.60;;;5.32;;
13173;SDS011;6652;48.802;9.190;2023-06-04T04:31:10;14.20;;;5.45;;
13173;SDS011;6652;48.802;9.190;2023-06-04T04:33:37;9.95;;;5.05;;
13173;SDS011;6652;48.802;9.190;2023-06-04T04:36:05;14.25;;;5.18;;
13173;SDS011;6652;48.802;9.190;2023-06-04T04:38:33;10.75;;;5.10;;
13173;SDS011;6652;48.802;9.190;2023-06-04T04:41:02;7.95;;;4.45;;
13173;SDS011;6652;48.802;9.190;2023-06-04T04:43:29;10.20;;;4.90;;
13173;SDS011;6652;48.802;9.190;2023-06-04T04:45:57;7.00;;;4.20;;
13173;SDS011;6652;48.802;9.190;2023-06-04T04:48:24;9.10;;;4.97;;
13173;SDS011;6652;48.802;9.190;2023-06-04T04:50:51;8.57;;;4.38;;
13173;SDS011;6652;48.802;9.190;2023-06-04T04:53:18;11.77;;;4.50;;
13173;SDS011;6652;48.802;9.190;2023-06-04T04:55:45;10.18;;;4.13;;
13173;SDS011;6652;48.802;9.190;2023-06-04T04:58:13;7.20;;;4.20;;
13173;SDS011;6652;48.802;9.190;2023-06-04T05:00:41;10.05;;;4.00;;
13173;SDS011;6652;48.802;9.190;2023-06-04T05:03:07;11.60;;;5.22;;
13173;SDS011;6652;48.802;9.190;2023-06-04T05:05:34;6.47;;;4.25;;
13173;SDS011;6652;48.802;9.190;2023-06-04T05:08:01;6.65;;;4.18;;
13173;SDS011;6652;48.802;9.190;2023-06-04T05:10:28;10.85;;;4.13;;
13173;SDS011;6652;48.802;9.190;2023-06-04T05:12:55;7.10;;;4.22;;
13173;SDS011;6652;48.802;9.190;2023-06-04T05:15:26;4.65;;;3.15;;
13173;SDS011;6652;48.802;9.190;2023-06-04T05:17:52;6.38;;;3.42;;
13173;SDS011;6652;48.802;9.190;2023-06-04T05:20:21;10.20;;;3.35;;
13173;SDS011;6652;48.802;9.190;2023-06-04T05:22:48;7.90;;;3.33;;
13173;SDS011;6652;48.802;9.190;2023-06-04T05:25:15;5.70;;;3.10;;
13173;SDS011;6652;48.802;9.190;2023-06-04T05:27:43;5.45;;;2.67;;
13173;SDS011;6652;48.802;9.190;2023-06-04T05:30:10;6.70;;;2.65;;
13173;SDS011;6652;48.802;9.190;2023-06-04T05:32:39;7.07;;;2.20;;
13173;SDS011;6652;48.802;9.190;2023-06-04T05:35:07;7.18;;;3.00;;
13173;SDS011;6652;48.802;9.190;2023-06-04T05:37:34;9.10;;;2.90;;
13173;SDS011;6652;48.802;9.190;2023-06-04T05:40:03;11.00;;;2.65;;
13173;SDS011;6652;48.802;9.190;2023-06-04T05:42:32;4.57;;;2.92;;
13173;SDS011;6652;48.802;9.190;2023-06-04T05:44:59;7.43;;;2.60;;
13173;SDS011;6652;48.802;9.190;2023-06-04T05:47:26;6.22;;;3.15;;
13173;SDS011;6652;48.802;9.190;2023-06-04T05:49:56;5.70;;;2.60;;
13173;SDS011;6652;48.802;9.190;2023-06-04T05:55:09;4.20;;;2.30;;
13173;SDS011;6652;48.802;9.190;2023-06-04T05:57:35;5.68;;;2.97;;
13173;SDS011;6652;48.802;9.190;2023-06-04T06:00:02;4.90;;;2.80;;
13173;SDS011;6652;48.802;9.190;2023-06-04T06:02:33;6.25;;;2.65;;
13173;SDS011;6652;48.802;9.190;2023-06-04T06:05:02;10.18;;;3.17;;
13173;SDS011;6652;48.802;9.190;2023-06-04T06:07:30;4.18;;;2.70;;
13173;SDS011;6652;48.802;9.190;2023-06-04T06:09:56;10.23;;;2.63;;
13173;SDS011;6652;48.802;9.190;2023-06-04T06:12:23;7.07;;;2.90;;
13173;SDS011;6652;48.802;9.190;2023-06-04T06:14:50;7.93;;;2.30;;
13173;SDS011;6652;48.802;9.190;2023-06-04T06:17:17;11.23;;;2.72;;
13173;SDS011;6652;48.802;9.190;2023-06-04T06:19:44;7.28;;;2.55;;
13173;SDS011;6652;48.802;9.190;2023-06-04T06:22:12;5.28;;;2.20;;
13173;SDS011;6652;48.802;9.190;2023-06-04T06:24:39;10.02;;;2.35;;
13173;SDS011;6652;48.802;9.190;2023-06-04T06:27:06;4.32;;;2.38;;
13173;SDS011;6652;48.802;9.190;2023-06-04T06:29:38;10.93;;;2.70;;
13173;SDS011;6652;48.802;9.190;2023-06-04T06:32:05;2.25;;;2.05;;
13173;SDS011;6652;48.802;9.190;2023-06-04T06:34:32;4.97;;;2.30;;
13173;SDS011;6652;48.802;9.190;2023-06-04T06:36:59;5.45;;;2.10;;
13173;SDS011;6652;48.802;9.190;2023-06-04T06:39:27;3.70;;;1.85;;
13173;SDS011;6652;48.802;9.190;2023-06-04T06:41:55;6.70;;;2.50;;
13173;SDS011;6652;48.802;9.190;2023-06-04T06:44:25;4.90;;;3.13;;
13173;SDS011;6652;48.802;9.190;2023-06-04T06:46:52;6.57;;;2.40;;
13173;SDS011;6652;48.802;9.190;2023-06-04T06:49:19;12.55;;;2.70;;
13173;SDS011;6652;48.802;9.190;2023-06-04T06:51:46;6.03;;;2.53;;
13173;SDS011;6652;48.802;9.190;2023-06-04T06:54:14;5.82;;;2.40;;
13173;SDS011;6652;48.802;9.190;2023-06-04T06:56:48;3.88;;;2.20;;
13173;SDS011;6652;48.802;9.190;2023-06-04T06:59:15;3.63;;;2.00;;
13173;SDS011;6652;48.802;9.190;2023-06-04T07:01:44;5.43;;;2.13;;
13173;SDS011;6652;48.802;9.190;2023-06-04T07:04:12;5.32;;;2.53;;
13173;SDS011;6652;48.802;9.190;2023-06-04T07:06:39;8.15;;;2.72;;
13173;SDS011;6652;48.802;9.190;2023-06-04T07:09:06;4.60;;;2.25;;
13173;SDS011;6652;48.802;9.190;2023-06-04T07:11:33;2.88;;;2.03;;
13173;SDS011;6652;48.802;9.190;2023-06-04T07:14:01;9.70;;;2.53;;
13173;SDS011;6652;48.802;9.190;2023-06-04T07:16:28;6.72;;;2.75;;
13173;SDS011;6652;48.802;9.190;2023-06-04T07:18:55;5.82;;;1.90;;
13173;SDS011;6652;48.802;9.190;2023-06-04T07:21:22;5.78;;;2.05;;
13173;SDS011;6652;48.802;9.190;2023-06-04T07:23:49;4.95;;;2.20;;
13173;SDS011;6652;48.802;9.190;2023-06-04T07:26:16;5.47;;;2.47;;
13173;SDS011;6652;48.802;9.190;2023-06-04T07:28:43;5.90;;;2.15;;
13173;SDS011;6652;48.802;9.190;2023-06-04T07:31:14;5.57;;;2.67;;
13173;SDS011;6652;48.802;9.190;2023-06-04T07:33:41;2.83;;;2.20;;
13173;SDS011;6652;48.802;9.190;2023-06-04T07:36:09;8.20;;;2.65;;
13173;SDS011;6652;48.802;9.190;2023-06-04T07:38:36;2.92;;;2.20;;
13173;SDS011;6652;48.802;9.190;2023-06-04T07:41:03;6.20;;;1.88;;
13173;SDS011;6652;48.802;9.190;2023-06-04T07:43:30;5.20;;;3.72;;
13173;SDS011;6652;48.802;9.190;2023-06-04T07:45:56;5.40;;;2.47;;
13173;SDS011;6652;48.802;9.190;2023-06-04T07:48:25;3.53;;;2.25;;
13173;SDS011;6652;48.802;9.190;2023-06-04T07:50:55;11.00;;;2.37;;
13173;SDS011;6652;48.802;9.190;2023-06-04T07:53:22;7.22;;;2.60;;
13173;SDS011;6652;48.802;9.190;2023-06-04T07:55:50;6.25;;;2.25;;
13173;SDS011;6652;48.802;9.190;2023-06-04T07:58:16;3.60;;;2.28;;
13173;SDS011;6652;48.802;9.190;2023-06-04T08:00:43;5.25;;;2.08;;
13173;SDS011;6652;48.802;9.190;2023-06-04T08:03:10;7.28;;;2.60;;
13173;SDS011;6652;48.802;9.190;2023-06-04T08:05:38;9.30;;;2.90;;
13173;SDS011;6652;48.802;9.190;2023-06-04T08:08:05;5.05;;;2.45;;
13173;SDS011;6652;48.802;9.190;2023-06-04T08:10:32;4.22;;;2.45;;
13173;SDS011;6652;48.802;9.190;2023-06-04T08:12:59;5.13;;;2.08;;
13173;SDS011;6652;48.802;9.190;2023-06-04T08:15:26;4.78;;;2.60;;
13173;SDS011;6652;48.802;9.190;2023-06-04T08:17:53;3.58;;;2.20;;
13173;SDS011;6652;48.802;9.190;2023-06-04T08:20:20;4.50;;;2.47;;
13173;SDS011;6652;48.802;9.190;2023-06-04T08:22:48;10.15;;;2.55;;
13173;SDS011;6652;48.802;9.190;2023-06-04T08:25:15;2.42;;;2.20;;
13173;SDS011;6652;48.802;9.190;2023-06-04T08:27:43;6.72;;;2.45;;
13173;SDS011;6652;48.802;9.190;2023-06-04T08:30:10;6.97;;;2.53;;
13173;SDS011;6652;48.802;9.190;2023-06-04T08:32:37;6.28;;;2.40;;
13173;SDS011;6652;48.802;9.190;2023-06-04T08:35:05;6.18;;;2.40;;
13173;SDS011;6652;48.802;9.190;2023-06-04T08:37:33;5.03;;;2.50;;
13173;SDS011;6652;48.802;9.190;2023-06-04T08:40:01;8.10;;;2.65;;
13173;SDS011;6652;48.802;9.190;2023-06-04T08:42:31;5.50;;;2.17;;
13173;SDS011;6652;48.802;9.190;2023-06-04T08:45:04;6.97;;;2.20;;
13173;SDS011;6652;48.802;9.190;2023-06-04T08:47:34;3.92;;;2.20;;
13173;SDS011;6652;48.802;9.190;2023-06-04T08:50:02;5.18;;;2.53;;
13173;SDS011;6652;48.802;9.190;2023-06-04T08:52:31;4.43;;;2.20;;
13173;SDS011;6652;48.802;9.190;2023-06-04T08:54:58;5.00;;;2.22;;
13173;SDS011;6652;48.802;9.190;2023-06-04T08:57:26;3.45;;;2.20;;
13173;SDS011;6652;48.802;9.190;2023-06-04T08:59:56;5.85;;;2.35;;
13173;SDS011;6652;48.802;9.190;2023-06-04T09:02:23;4.72;;;2.00;;
13173;SDS011;6652;48.802;9.190;2023-06-04T09:04:53;4.82;;;2.15;;
13173;SDS011;6652;48.802;9.190;2023-06-04T09:07:20;8.23;;;2.22;;
13173;SDS011;6652;48.802;9.190;2023-06-04T09:09:47;6.47;;;2.53;;
13173;SDS011;6652;48.802;9.190;2023-06-04T09:12:24;5.32;;;2.28;;
13173;SDS011;6652;48.802;9.190;2023-06-04T09:14:53;4.90;;;2.30;;
13173;SDS011;6652;48.802;9.190;2023-06-04T09:17:23;9.55;;;2.70;;
13173;SDS011;6652;48.802;9.190;2023-06-04T09:19:50;5.72;;;2.50;;
13173;SDS011;6652;48.802;9.190;2023-06-04T09:22:17;5.90;;;2.70;;
13173;SDS011;6652;48.802;9.190;2023-06-04T09:24:44;5.40;;;2.55;;
13173;SDS011;6652;48.802;9.190;2023-06-04T09:27:15;6.70;;;2.50;;
13173;SDS011;6652;48.802;9.190;2023-06-04T09:29:48;6.13;;;1.98;;
13173;SDS011;6652;48.802;9.190;2023-06-04T09:32:21;7.93;;;2.40;;
13173;SDS011;6652;48.802;9.190;2023-06-04T09:34:48;5.18;;;2.45;;
13173;SDS011;6652;48.802;9.190;2023-06-04T09:37:16;5.20;;;2.25;;
13173;SDS011;6652;48.802;9.190;2023-06-04T09:39:43;5.78;;;2.42;;
13173;SDS011;6652;48.802;9.190;2023-06-04T09:42:10;5.50;;;2.20;;
13173;SDS011;6652;48.802;9.190;2023-06-04T09:44:42;4.15;;;2.30;;
13173;SDS011;6652;48.802;9.190;2023-06-04T09:47:09;8.35;;;2.17;;
13173;SDS011;6652;48.802;9.190;2023-06-04T09:49:41;5.63;;;2.60;;
13173;SDS011;6652;48.802;9.190;2023-06-04T09:52:08;4.68;;;2.42;;
13173;SDS011;6652;48.802;9.190;2023-06-04T09:54:35;12.50;;;2.72;;
13173;SDS011;6652;48.802;9.190;2023-06-04T09:57:03;10.57;;;2.70;;
13173;SDS011;6652;48.802;9.190;2023-06-04T09:59:31;9.85;;;2.72;;
13173;SDS011;6652;48.802;9.190;2023-06-04T10:02:03;5.35;;;2.63;;
13173;SDS011;6652;48.802;9.190;2023-06-04T10:04:35;9.38;;;2.80;;
13173;SDS011;6652;48.802;9.190;2023-06-04T10:07:04;6.05;;;2.30;;
13173;SDS011;6652;48.802;9.190;2023-06-04T10:09:32;8.57;;;2.97;;
13173;SDS011;6652;48.802;9.190;2023-06-04T10:12:02;6.97;;;2.88;;
13173;SDS011;6652;48.802;9.190;2023-06-04T10:14:31;8.63;;;2.58;;
13173;SDS011;6652;48.802;9.190;2023-06-04T10:17:05;5.50;;;2.90;;
13173;SDS011;6652;48.802;9.190;2023-06-04T10:19:33;7.13;;;3.05;;
13173;SDS011;6652;48.802;9.190;2023-06-04T10:22:05;6.82;;;3.20;;
13173;SDS011;6652;48.802;9.190;2023-06-04T10:24:34;4.82;;;2.72;;
13173;SDS011;6652;48.802;9.190;2023-06-04T10:27:01;4.60;;;2.92;;
13173;SDS011;6652;48.802;9.190;2023-06-04T10:29:35;8.48;;;3.08;;
13173;SDS011;6652;48.802;9.190;2023-06-04T10:32:02;8.80;;;3.03;;
13173;SDS011;6652;48.802;9.190;2023-06-04T10:34:29;3.95;;;2.70;;
13173;SDS011;6652;48.802;9.190;2023-06-04T10:36:56;10.85;;;3.28;;
13173;SDS011;6652;48.802;9.190;2023-06-04T10:39:28;6.10;;;3.25;;
13173;SDS011;6652;48.802;9.190;2023-06-04T10:41:58;6.47;;;2.80;;
13173;SDS011;6652;48.802;9.190;2023-06-04T10:44:25;8.07;;;3.17;;
13173;SDS011;6652;48.802;9.190;2023-06-04T10:46:52;4.07;;;2.60;;
13173;SDS011;6652;48.802;9.190;2023-06-04T10:49:25;7.43;;;2.60;;
13173;SDS011;6652;48.802;9.190;2023-06-04T10:51:53;6.13;;;2.60;;
13173;SDS011;6652;48.802;9.190;2023-06-04T10:54:24;6.35;;;2.63;;
13173;SDS011;6652;48.802;9.190;2023-06-04T10:56:52;9.52;;;2.83;;
13173;SDS011;6652;48.802;9.190;2023-06-04T10:59:19;5.10;;;2.88;;
13173;SDS011;6652;48.802;9.190;2023-06-04T11:01:48;8.43;;;2.88;;
13173;SDS011;6652;48.802;9.190;2023-06-04T11:04:18;5.03;;;3.25;;
13173;SDS011;6652;48.802;9.190;2023-06-04T11:06:46;7.25;;;3.58;;
13173;SDS011;6652;48.802;9.190;2023-06-04T11:09:13;7.78;;;3.40;;
13173;SDS011;6652;48.802;9.190;2023-06-04T11:11:41;6.25;;;3.20;;
13173;SDS011;6652;48.802;9.190;2023-06-04T11:14:10;5.50;;;2.88;;
13173;SDS011;6652;48.802;9.190;2023-06-04T11:16:38;7.63;;;3.67;;
13173;SDS011;6652;48.802;9.190;2023-06-04T11:19:05;8.50;;;3.45;;
13173;SDS011;6652;48.802;9.190;2023-06-04T11:21:33;5.05;;;2.88;;
13173;SDS011;6652;48.802;9.190;2023-06-04T11:24:01;13.30;;;3.45;;
13173;SDS011;6652;48.802;9.190;2023-06-04T11:26:30;7.60;;;2.80;;
13173;SDS011;6652;48.802;9.190;2023-06-04T11:28:57;8.05;;;2.92;;
13173;SDS011;6652;48.802;9.190;2023-06-04T11:31:26;7.28;;;3.42;;
13173;SDS011;6652;48.802;9.190;2023-06-04T11:33:53;6.38;;;3.13;;
13173;SDS011;6652;48.802;9.190;2023-06-04T11:36:23;6.97;;;3.42;;
13173;SDS011;6652;48.802;9.190;2023-06-04T11:38:56;10.82;;;3.40;;
13173;SDS011;6652;48.802;9.190;2023-06-04T11:41:23;7.80;;;3.38;;
13173;SDS011;6652;48.802;9.190;2023-06-04T11:43:53;4.47;;;3.00;;
13173;SDS011;6652;48.802;9.190;2023-06-04T11:46:20;9.93;;;3.25;;
13173;SDS011;6652;48.802;9.190;2023-06-04T11:48:48;7.15;;;3.70;;
13173;SDS011;6652;48.802;9.190;2023-06-04T11:51:17;6.68;;;3.17;;
13173;SDS011;6652;48.802;9.190;2023-06-04T11:53:43;4.88;;;3.15;;
13173;SDS011;6652;48.802;9.190;2023-06-04T11:56:10;5.28;;;3.58;;
13173;SDS011;6652;48.802;9.190;2023-06-04T11:58:38;10.80;;;3.53;;
13173;SDS011;6652;48.802;9.190;2023-06-04T12:01:05;10.95;;;3.30;;
13173;SDS011;6652;48.802;9.190;2023-06-04T12:03:33;6.63;;;3.20;;
13173;SDS011;6652;48.802;9.190;2023-06-04T12:06:10;13.05;;;3.80;;
13173;SDS011;6652;48.802;9.190;2023-06-04T12:08:44;7.47;;;3.47;;
13173;SDS011;6652;48.802;9.190;2023-06-04T12:11:20;4.30;;;3.30;;
13173;SDS011;6652;48.802;9.190;2023-06-04T12:13:51;5.78;;;3.60;;
13173;SDS011;6652;48.802;9.190;2023-06-04T12:16:18;7.15;;;3.45;;
13173;SDS011;6652;48.802;9.190;2023-06-04T12:18:45;6.05;;;3.88;;
13173;SDS011;6652;48.802;9.190;2023-06-04T12:21:18;7.65;;;3.80;;
13173;SDS011;6652;48.802;9.190;2023-06-04T12:23:52;5.72;;;3.47;;
13173;SDS011;6652;48.802;9.190;2023-06-04T12:26:20;4.85;;;3.35;;
13173;SDS011;6652;48.802;9.190;2023-06-04T12:29:00;5.53;;;3.10;;
13173;SDS011;6652;48.802;9.190;2023-06-04T12:31:27;8.77;;;3.55;;
13173;SDS011;6652;48.802;9.190;2023-06-04T12:33:57;9.57;;;3.35;;
13173;SDS011;6652;48.802;9.190;2023-06-04T12:36:28;8.35;;;3.38;;
13173;SDS011;6652;48.802;9.190;2023-06-04T12:38:57;5.10;;;3.28;;
13173;SDS011;6652;48.802;9.190;2023-06-04T12:41:25;8.63;;;3.55;;
13173;SDS011;6652;48.802;9.190;2023-06-04T12:43:52;7.25;;;3.70;;
13173;SDS011;6652;48.802;9.190;2023-06-04T12:46:20;7.57;;;4.05;;
13173;SDS011;6652;48.802;9.190;2023-06-04T12:48:47;5.70;;;3.40;;
13173;SDS011;6652;48.802;9.190;2023-06-04T12:51:14;9.43;;;3.47;;
13173;SDS011;6652;48.802;9.190;2023-06-04T12:53:42;5.20;;;3.85;;
13173;SDS011;6652;48.802;9.190;2023-06-04T12:56:10;6.80;;;3.58;;
13173;SDS011;6652;48.802;9.190;2023-06-04T12:58:37;7.28;;;3.35;;
13173;SDS011;6652;48.802;9.190;2023-06-04T13:01:04;5.50;;;3.30;;
13173;SDS011;6652;48.802;9.190;2023-06-04T13:03:31;7.88;;;3.78;;
13173;SDS011;6652;48.802;9.190;2023-06-04T13:05:58;7.63;;;3.28;;
13173;SDS011;6652;48.802;9.190;2023-06-04T13:08:25;5.40;;;3.00;;
13173;SDS011;6652;48.802;9.190;2023-06-04T13:10:53;6.90;;;3.33;;
13173;SDS011;6652;48.802;9.190;2023-06-04T13:13:20;8.05;;;2.95;;
13173;SDS011;6652;48.802;9.190;2023-06-04T13:15:47;6.00;;;3.28;;
13173;SDS011;6652;48.802;9.190;2023-06-04T13:18:14;8.57;;;3.28;;
13173;SDS011;6652;48.802;9.190;2023-06-04T13:20:41;8.10;;;2.95;;
13173;SDS011;6652;48.802;9.190;2023-06-04T13:23:08;8.77;;;3.05;;
13173;SDS011;6652;48.802;9.190;2023-06-04T13:25:34;6.38;;;3.30;;
13173;SDS011;6652;48.802;9.190;2023-06-04T13:28:03;4.72;;;3.05;;
13173;SDS011;6652;48.802;9.190;2023-06-04T13:30:30;8.52;;;3.20;;
13173;SDS011;6652;48.802;9.190;2023-06-04T13:32:57;8.82;;;3.53;;
13173;SDS011;6652;48.802;9.190;2023-06-04T13:35:24;8.77;;;3.60;;
13173;SDS011;6652;48.802;9.190;2023-06-04T13:37:51;7.95;;;3.60;;
13173;SDS011;6652;48.802;9.190;2023-06-04T13:40:18;5.05;;;3.10;;
13173;SDS011;6652;48.802;9.190;2023-06-04T13:42:45;5.90;;;3.53;;
13173;SDS011;6652;48.802;9.190;2023-06-04T13:45:13;8.80;;;3.35;;
13173;SDS011;6652;48.802;9.190;2023-06-04T13:47:41;6.82;;;2.97;;
13173;SDS011;6652;48.802;9.190;2023-06-04T13:50:09;4.30;;;2.90;;
13173;SDS011;6652;48.802;9.190;2023-06-04T13:52:36;6.05;;;3.25;;
13173;SDS011;6652;48.802;9.190;2023-06-04T13:55:03;13.40;;;3.50;;
13173;SDS011;6652;48.802;9.190;2023-06-04T13:57:31;8.00;;;3.45;;
13173;SDS011;6652;48.802;9.190;2023-06-04T13:59:57;7.15;;;3.38;;
13173;SDS011;6652;48.802;9.190;2023-06-04T14:02:26;5.72;;;3.20;;
13173;SDS011;6652;48.802;9.190;2023-06-04T14:04:53;5.57;;;3.92;;
13173;SDS011;6652;48.802;9.190;2023-06-04T14:07:20;5.03;;;3.13;;
13173;SDS011;6652;48.802;9.190;2023-06-04T14:09:48;11.40;;;3.30;;
13173;SDS011;6652;48.802;9.190;2023-06-04T14:12:19;6.47;;;2.95;;
13173;SDS011;6652;48.802;9.190;2023-06-04T14:14:46;5.22;;;3.53;;
13173;SDS011;6652;48.802;9.190;2023-06-04T14:17:13;4.70;;;3.10;;
13173;SDS011;6652;48.802;9.190;2023-06-04T14:19:41;9.60;;;3.58;;
13173;SDS011;6652;48.802;9.190;2023-06-04T14:22:09;6.45;;;3.10;;
13173;SDS011;6652;48.802;9.190;2023-06-04T14:24:36;7.28;;;3.00;;
13173;SDS011;6652;48.802;9.190;2023-06-04T14:27:03;7.03;;;3.35;;
13173;SDS011;6652;48.802;9.190;2023-06-04T14:29:31;6.05;;;3.38;;
13173;SDS011;6652;48.802;9.190;2023-06-04T14:31:58;10.38;;;3.83;;
13173;SDS011;6652;48.802;9.190;2023-06-04T14:34:25;8.48;;;3.45;;
13173;SDS011;6652;48.802;9.190;2023-06-04T14:36:53;5.55;;;3.30;;
13173;SDS011;6652;48.802;9.190;2023-06-04T14:39:22;6.07;;;3.50;;
13173;SDS011;6652;48.802;9.190;2023-06-04T14:41:49;6.00;;;3.80;;
13173;SDS011;6652;48.802;9.190;2023-06-04T14:44:17;6.70;;;3.53;;
13173;SDS011;6652;48.802;9.190;2023-06-04T14:46:43;7.35;;;3.60;;
13173;SDS011;6652;48.802;9.190;2023-06-04T14:49:10;9.43;;;4.10;;
13173;SDS011;6652;48.802;9.190;2023-06-04T14:51:37;5.30;;;3.55;;
13173;SDS011;6652;48.802;9.190;2023-06-04T14:54:05;5.95;;;3.38;;
13173;SDS011;6652;48.802;9.190;2023-06-04T14:56:32;4.63;;;3.05;;
13173;SDS011;6652;48.802;9.190;2023-06-04T14:58:59;3.58;;;2.90;;
13173;SDS011;6652;48.802;9.190;2023-06-04T15:01:26;7.00;;;3.42;;
13173;SDS011;6652;48.802;9.190;2023-06-04T15:03:53;7.25;;;3.08;;